createdAt,value
2022-11-20T00:00:36.226Z,10.47
2022-11-20T00:03:22.827Z,11.03
2022-11-20T00:06:12.343Z,10.70
2022-11-20T00:09:00.897Z,10.77
2022-11-20T00:11:47.289Z,11.63
2022-11-20T00:14:33.963Z,11.37
2022-11-20T00:17:20.475Z,10.43
2022-11-20T00:20:07.786Z,10.80
2022-11-20T00:22:55.312Z,11.33
2022-11-20T00:25:41.641Z,10.27
2022-11-20T00:28:27.746Z,10.90
2022-11-20T00:31:16.354Z,10.63
2022-11-20T00:34:02.592Z,11.23
2022-11-20T00:36:48.910Z,11.67
2022-11-20T00:39:36.791Z,10.60
2022-11-20T00:42:23.951Z,10.40
2022-11-20T00:45:10.395Z,10.30
2022-11-20T00:47:56.555Z,16.47
2022-11-20T00:50:43.722Z,14.17
2022-11-20T00:53:30.371Z,10.97
2022-11-20T00:56:20.125Z,11.23
2022-11-20T00:59:06.733Z,10.27
2022-11-20T01:01:53.299Z,10.93
2022-11-20T01:04:39.877Z,10.80
2022-11-20T01:07:26.243Z,11.20
2022-11-20T01:10:13.258Z,10.77
2022-11-20T01:13:14.791Z,11.33
2022-11-20T01:16:04.672Z,10.40
2022-11-20T01:18:53.243Z,10.23
2022-11-20T01:21:42.087Z,11.20
2022-11-20T01:24:28.615Z,10.90
2022-11-20T01:27:14.891Z,9.87
2022-11-20T01:30:02.725Z,10.23
2022-11-20T01:32:49.140Z,10.70
2022-11-20T01:35:35.627Z,10.70
2022-11-20T01:38:23.497Z,10.33
2022-11-20T01:41:11.194Z,9.93
2022-11-20T01:43:56.682Z,10.17
2022-11-20T01:46:54.552Z,10.57
2022-11-20T01:49:44.999Z,10.70
2022-11-20T01:52:35.999Z,10.90
2022-11-20T01:55:25.713Z,9.93
2022-11-20T01:58:13.520Z,11.80
2022-11-20T02:01:00.088Z,13.53
2022-11-20T02:03:48.535Z,10.67
2022-11-20T02:06:40.737Z,10.00
2022-11-20T02:09:27.123Z,10.80
2022-11-20T02:12:33.839Z,11.47
2022-11-20T02:15:19.291Z,10.93
2022-11-20T02:18:07.586Z,11.63
2022-11-20T02:21:00.834Z,11.47
2022-11-20T02:24:06.001Z,11.43
2022-11-20T02:26:55.208Z,11.77
2022-11-20T02:29:46.035Z,10.43
2022-11-20T02:32:34.404Z,11.17
2022-11-20T02:35:41.950Z,11.00
2022-11-20T02:38:28.472Z,11.07
2022-11-20T02:41:15.936Z,10.53
2022-11-20T02:44:02.201Z,11.13
2022-11-20T02:46:48.520Z,11.67
2022-11-20T02:49:34.967Z,10.80
2022-11-20T02:52:21.231Z,11.53
2022-11-20T02:55:08.728Z,10.70
2022-11-20T02:57:56.798Z,11.30
2022-11-20T03:00:43.009Z,10.73
2022-11-20T03:03:29.446Z,11.10
2022-11-20T03:06:15.592Z,10.53
2022-11-20T03:09:02.183Z,12.27
2022-11-20T03:11:48.591Z,11.07
2022-11-20T03:14:36.857Z,12.03
2022-11-20T03:17:23.313Z,11.43
2022-11-20T03:20:11.091Z,11.90
2022-11-20T03:22:57.849Z,11.23
2022-11-20T03:25:44.090Z,11.63
2022-11-20T03:28:30.313Z,11.47
2022-11-20T03:31:20.225Z,12.07
2022-11-20T03:34:06.772Z,10.47
2022-11-20T03:36:53.312Z,11.27
2022-11-20T03:39:39.684Z,11.27
2022-11-20T03:42:43.363Z,12.20
2022-11-20T03:45:29.780Z,11.40
2022-11-20T03:48:17.368Z,10.93
2022-11-20T03:51:11.045Z,11.60
2022-11-20T03:53:59.419Z,11.77
2022-11-20T03:56:45.626Z,12.37
2022-11-20T03:59:32.395Z,11.93
2022-11-20T04:02:18.743Z,10.83
2022-11-20T04:05:07.817Z,11.13
2022-11-20T04:07:53.997Z,10.13
2022-11-20T04:10:40.750Z,11.07
2022-11-20T04:13:26.933Z,10.50
2022-11-20T04:16:13.760Z,11.40
2022-11-20T04:19:02.753Z,11.17
2022-11-20T04:21:50.622Z,10.67
2022-11-20T04:24:36.765Z,11.20
2022-11-20T04:27:23.280Z,10.63
2022-11-20T04:30:10.792Z,10.47
2022-11-20T04:32:57.091Z,10.77
2022-11-20T04:35:50.630Z,12.00
2022-11-20T04:38:38.851Z,11.53
2022-11-20T04:41:27.659Z,10.67
2022-11-20T04:44:14.344Z,11.80
2022-11-20T04:47:00.565Z,11.50
2022-11-20T04:49:46.936Z,11.43
2022-11-20T04:52:33.709Z,12.40
2022-11-20T04:55:21.187Z,11.80
2022-11-20T04:58:07.630Z,11.63
2022-11-20T05:00:53.967Z,11.97
2022-11-20T05:03:42.540Z,11.93
2022-11-20T05:06:29.281Z,11.47
2022-11-20T05:09:15.539Z,13.00
2022-11-20T05:12:03.363Z,12.03
2022-11-20T05:14:49.479Z,11.60
2022-11-20T05:17:35.900Z,11.53
2022-11-20T05:20:22.115Z,12.53
2022-11-20T05:23:08.363Z,11.80
2022-11-20T05:25:58.929Z,11.50
2022-11-20T05:28:47.856Z,13.03
2022-11-20T05:31:34.172Z,12.07
2022-11-20T05:34:20.736Z,12.17
2022-11-20T05:37:07.198Z,12.63
2022-11-20T05:39:53.691Z,10.97
2022-11-20T05:42:39.833Z,12.30
2022-11-20T05:45:27.991Z,12.10
2022-11-20T05:48:14.147Z,13.40
2022-11-20T05:51:00.875Z,12.33
2022-11-20T05:53:48.726Z,13.10
2022-11-20T05:56:35.218Z,12.53
2022-11-20T05:59:21.650Z,12.50
2022-11-20T06:02:09.939Z,12.33
2022-11-20T06:04:56.576Z,11.90
2022-11-20T06:07:42.823Z,11.73
2022-11-20T06:10:28.963Z,13.47
2022-11-20T06:13:15.541Z,12.33
2022-11-20T06:16:02.088Z,12.47
2022-11-20T06:18:50.122Z,13.60
2022-11-20T06:21:36.784Z,13.07
2022-11-20T06:24:23.789Z,14.27
2022-11-20T06:27:10.288Z,13.27
2022-11-20T06:29:56.885Z,13.20
2022-11-20T06:32:43.033Z,13.50
2022-11-20T06:35:30.668Z,14.27
2022-11-20T06:38:16.993Z,13.93
2022-11-20T06:41:03.447Z,14.03
2022-11-20T06:43:50.272Z,13.50
2022-11-20T06:46:39.172Z,15.73
2022-11-20T06:49:26.208Z,15.20
2022-11-20T06:52:13.908Z,13.63
2022-11-20T06:55:00.081Z,13.60
2022-11-20T06:57:46.282Z,14.00
2022-11-20T07:00:32.602Z,14.13
2022-11-20T07:03:18.934Z,14.63
2022-11-20T07:06:06.372Z,15.37
2022-11-20T07:08:54.348Z,14.70
2022-11-20T07:11:40.549Z,13.07
2022-11-20T07:14:27.250Z,14.30
2022-11-20T07:17:13.820Z,14.53
2022-11-20T07:20:00.101Z,12.57
2022-11-20T07:22:46.311Z,14.30
2022-11-20T07:25:34.171Z,15.90
2022-11-20T07:28:20.411Z,15.63
2022-11-20T07:31:08.480Z,15.27
2022-11-20T07:33:54.824Z,15.47
2022-11-20T07:36:41.712Z,14.27
2022-11-20T07:39:28.253Z,14.23
2022-11-20T07:42:16.359Z,13.43
2022-11-20T07:45:02.723Z,15.13
2022-11-20T07:47:49.071Z,14.80
2022-11-20T07:50:35.353Z,14.50
2022-11-20T07:53:22.715Z,13.70
2022-11-20T07:56:10.424Z,13.63
2022-11-20T07:58:58.185Z,13.63
2022-11-20T08:01:44.711Z,14.37
2022-11-20T08:04:31.235Z,13.17
2022-11-20T08:07:17.583Z,13.47
2022-11-20T08:10:04.236Z,13.70
2022-11-20T08:13:09.672Z,12.60
2022-11-20T08:15:57.587Z,13.20
2022-11-20T08:18:43.777Z,13.00
2022-11-20T08:21:35.170Z,13.33
2022-11-20T08:24:24.228Z,13.57
2022-11-20T08:27:10.323Z,13.83
2022-11-20T08:29:56.523Z,13.80
2022-11-20T08:32:44.547Z,13.83
2022-11-20T08:35:34.224Z,14.27
2022-11-20T08:38:20.575Z,14.80
2022-11-20T08:41:26.590Z,16.17
2022-11-20T08:44:13.121Z,13.90
2022-11-20T08:46:59.393Z,14.60
2022-11-20T08:49:46.860Z,14.30
2022-11-20T08:52:35.703Z,13.80
2022-11-20T08:55:25.731Z,14.23
2022-11-20T08:58:11.980Z,14.03
2022-11-20T09:00:58.857Z,13.53
2022-11-20T09:03:45.214Z,13.80
2022-11-20T09:06:33.096Z,14.20
2022-11-20T09:09:19.828Z,13.10
2022-11-20T09:12:06.676Z,14.13
2022-11-20T09:14:55.094Z,14.17
2022-11-20T09:17:41.531Z,14.37
2022-11-20T09:20:29.591Z,13.47
2022-11-20T09:23:17.305Z,13.03
2022-11-20T09:26:04.888Z,13.73
2022-11-20T09:28:55.417Z,13.70
2022-11-20T09:31:44.228Z,12.57
2022-11-20T09:34:30.676Z,13.23
2022-11-20T09:37:16.843Z,13.67
2022-11-20T09:40:05.857Z,13.47
2022-11-20T09:42:59.547Z,13.47
2022-11-20T09:46:04.075Z,14.07
2022-11-20T09:49:08.385Z,13.87
2022-11-20T09:52:00.865Z,13.73
2022-11-20T09:54:47.494Z,12.43
2022-11-20T09:57:38.872Z,13.70
2022-11-20T10:00:25.534Z,13.37
2022-11-20T10:03:18.613Z,13.90
2022-11-20T10:06:07.151Z,13.00
2022-11-20T10:09:03.247Z,14.10
2022-11-20T10:12:00.206Z,13.30
2022-11-20T10:15:02.148Z,15.27
2022-11-20T10:18:03.359Z,13.30
2022-11-20T10:21:00.179Z,12.70
2022-11-20T10:24:11.223Z,13.60
2022-11-20T10:27:08.493Z,13.00
2022-11-20T10:30:03.019Z,12.97
2022-11-20T10:32:52.086Z,14.20
2022-11-20T10:35:43.701Z,11.70
2022-11-20T10:38:39.054Z,13.47
2022-11-20T10:41:28.653Z,13.13
2022-11-20T10:44:38.763Z,12.53
2022-11-20T10:47:29.451Z,13.60
2022-11-20T10:50:22.611Z,13.10
2022-11-20T10:53:20.308Z,11.97
2022-11-20T10:56:11.823Z,11.97
2022-11-20T10:59:18.602Z,12.97
2022-11-20T11:02:17.445Z,14.17
2022-11-20T11:05:17.087Z,12.73
2022-11-20T11:08:04.464Z,13.23
2022-11-20T11:10:55.672Z,12.83
2022-11-20T11:13:42.177Z,21.50
2022-11-20T11:16:29.098Z,15.40
2022-11-20T11:19:16.001Z,12.13
2022-11-20T11:22:12.834Z,13.17
2022-11-20T11:24:59.629Z,12.97
2022-11-20T11:27:49.227Z,14.37
2022-11-20T11:30:45.123Z,13.20
2022-11-20T11:33:34.526Z,12.03
2022-11-20T11:36:25.694Z,12.40
2022-11-20T11:39:18.166Z,14.17
2022-11-20T11:42:04.525Z,12.13
2022-11-20T11:45:09.289Z,11.27
2022-11-20T11:47:59.232Z,12.17
2022-11-20T11:50:51.321Z,15.57
2022-11-20T11:53:42.372Z,13.07
2022-11-20T11:56:30.923Z,10.13
2022-11-20T11:59:27.575Z,11.17
2022-11-20T12:02:26.166Z,11.23
2022-11-20T12:05:20.372Z,12.17
2022-11-20T12:08:13.964Z,11.13
2022-11-20T12:11:06.497Z,10.73
2022-11-20T12:13:59.110Z,10.20
2022-11-20T12:16:45.749Z,12.37
2022-11-20T12:19:34.159Z,10.50
2022-11-20T12:22:31.279Z,11.97
2022-11-20T12:25:22.329Z,11.67
2022-11-20T12:28:34.515Z,11.00
2022-11-20T12:31:45.407Z,11.53
2022-11-20T12:34:49.432Z,10.80
2022-11-20T12:37:47.636Z,11.10
2022-11-20T12:40:41.130Z,11.90
2022-11-20T12:43:47.492Z,14.03
2022-11-20T12:46:42.160Z,9.83
2022-11-20T12:49:39.651Z,9.47
2022-11-20T12:52:41.220Z,10.77
2022-11-20T12:55:44.120Z,10.50
2022-11-20T12:58:38.955Z,11.47
2022-11-20T13:01:42.070Z,10.63
2022-11-20T13:04:48.015Z,13.70
2022-11-20T13:07:37.062Z,11.50
2022-11-20T13:10:33.347Z,10.67
2022-11-20T13:13:25.916Z,11.07
2022-11-20T13:16:18.495Z,10.10
2022-11-20T13:19:06.617Z,11.13
2022-11-20T13:21:54.335Z,10.97
2022-11-20T13:24:40.611Z,9.37
2022-11-20T13:27:27.376Z,11.10
2022-11-20T13:30:19.008Z,10.07
2022-11-20T13:33:09.095Z,10.17
2022-11-20T13:35:58.491Z,10.30
2022-11-20T13:38:49.497Z,10.80
2022-11-20T13:41:38.889Z,10.33
2022-11-20T13:44:29.300Z,25.33
2022-11-20T13:47:24.322Z,12.50
2022-11-20T13:50:11.331Z,9.03
2022-11-20T13:53:07.932Z,8.90
2022-11-20T13:56:03.086Z,12.63
2022-11-20T13:59:05.045Z,10.30
2022-11-20T14:01:51.806Z,10.67
2022-11-20T14:04:44.465Z,10.27
2022-11-20T14:07:37.565Z,10.60
2022-11-20T14:10:31.379Z,12.37
2022-11-20T14:13:22.179Z,10.93
2022-11-20T14:16:08.652Z,10.33
2022-11-20T14:18:56.420Z,10.40
2022-11-20T14:21:42.785Z,10.00
2022-11-20T14:24:29.203Z,10.37
2022-11-20T14:27:17.344Z,12.27
2022-11-20T14:30:06.360Z,10.93
2022-11-20T14:32:55.357Z,35.93
2022-11-20T14:35:47.239Z,11.90
2022-11-20T14:38:34.394Z,11.73
2022-11-20T14:41:22.447Z,11.20
2022-11-20T14:44:11.035Z,11.33
2022-11-20T14:47:00.096Z,11.90
2022-11-20T14:49:47.707Z,10.27
2022-11-20T14:52:34.224Z,11.97
2022-11-20T14:55:35.160Z,10.93
2022-11-20T14:58:24.715Z,10.67
2022-11-20T15:01:15.269Z,9.93
2022-11-20T15:04:07.391Z,10.30
2022-11-20T15:06:55.778Z,11.37
2022-11-20T15:09:42.367Z,10.93
2022-11-20T15:12:28.951Z,10.97
2022-11-20T15:15:18.810Z,10.10
2022-11-20T15:18:06.071Z,11.27
2022-11-20T15:20:55.636Z,10.70
2022-11-20T15:23:42.075Z,11.23
2022-11-20T15:26:29.799Z,13.77
2022-11-20T15:29:19.589Z,13.17
2022-11-20T15:32:11.982Z,12.40
2022-11-20T15:34:59.791Z,12.80
2022-11-20T15:37:47.630Z,12.47
2022-11-20T15:40:33.926Z,12.87
2022-11-20T15:43:20.311Z,11.93
2022-11-20T15:46:11.148Z,13.87
2022-11-20T15:48:58.829Z,14.53
2022-11-20T15:51:47.208Z,14.20
2022-11-20T15:54:34.930Z,15.07
2022-11-20T15:57:21.317Z,17.17
2022-11-20T16:00:09.667Z,15.03
2022-11-20T16:02:55.963Z,13.60
2022-11-20T16:05:42.256Z,13.63
2022-11-20T16:08:28.735Z,14.27
2022-11-20T16:11:18.423Z,14.40
2022-11-20T16:14:22.948Z,13.67
2022-11-20T16:17:09.855Z,13.53
2022-11-20T16:19:56.035Z,12.80
2022-11-20T16:22:42.496Z,15.70
2022-11-20T16:25:29.556Z,16.27
2022-11-20T16:28:19.094Z,15.33
2022-11-20T16:31:11.273Z,16.07
2022-11-20T16:33:59.498Z,15.43
2022-11-20T16:36:46.336Z,13.87
2022-11-20T16:39:32.608Z,13.67
2022-11-20T16:42:18.912Z,13.87
2022-11-20T16:45:07.751Z,13.37
2022-11-20T16:47:54.219Z,16.53
2022-11-20T16:50:47.905Z,27.00
2022-11-20T16:53:34.932Z,20.20
2022-11-20T16:56:23.734Z,26.93
2022-11-20T16:59:10.756Z,15.13
2022-11-20T17:01:58.485Z,12.40
2022-11-20T17:04:44.582Z,11.93
2022-11-20T17:07:30.813Z,12.67
2022-11-20T17:10:17.167Z,11.67
2022-11-20T17:13:03.679Z,11.40
2022-11-20T17:15:49.882Z,11.43
2022-11-20T17:18:37.939Z,19.60
2022-11-20T17:21:24.292Z,21.40
2022-11-20T17:24:13.394Z,14.47
2022-11-20T17:26:59.961Z,15.37
2022-11-20T17:29:46.744Z,12.20
2022-11-20T17:32:32.986Z,12.20
2022-11-20T17:35:20.988Z,12.33
2022-11-20T17:38:07.432Z,12.30
2022-11-20T17:40:53.911Z,14.50
2022-11-20T17:43:40.732Z,15.07
2022-11-20T17:46:29.039Z,16.00
2022-11-20T17:49:17.853Z,20.77
2022-11-20T17:52:09.343Z,17.20
2022-11-20T17:54:56.062Z,16.20
2022-11-20T17:57:53.659Z,15.20
2022-11-20T18:00:39.891Z,14.53
2022-11-20T18:03:26.325Z,14.13
2022-11-20T18:06:14.509Z,14.70
2022-11-20T18:09:03.448Z,14.67
2022-11-20T18:11:50.119Z,46.47
2022-11-20T18:14:37.056Z,17.63
2022-11-20T18:17:23.748Z,15.97
2022-11-20T18:20:28.721Z,15.47
2022-11-20T18:23:16.959Z,20.50
2022-11-20T18:26:04.558Z,15.13
2022-11-20T18:28:51.416Z,15.97
2022-11-20T18:31:37.810Z,15.37
2022-11-20T18:34:25.458Z,14.80
2022-11-20T18:37:15.216Z,16.33
2022-11-20T18:40:01.523Z,16.37
2022-11-20T18:43:06.749Z,15.97
2022-11-20T18:46:03.514Z,17.43
2022-11-20T18:48:49.777Z,15.37
2022-11-20T18:51:36.614Z,16.90
2022-11-20T18:54:23.596Z,17.63
2022-11-20T18:57:14.371Z,16.77
2022-11-20T19:00:08.338Z,19.37
2022-11-20T19:02:55.424Z,16.70
2022-11-20T19:05:42.043Z,17.40
2022-11-20T19:08:28.452Z,15.67
2022-11-20T19:11:15.196Z,17.73
2022-11-20T19:14:01.667Z,16.73
2022-11-20T19:16:49.596Z,18.13
2022-11-20T19:19:36.372Z,30.30
2022-11-20T19:22:23.014Z,17.13
2022-11-20T19:25:10.378Z,16.77
2022-11-20T19:27:57.240Z,16.70
2022-11-20T19:30:43.489Z,16.57
2022-11-20T19:33:31.588Z,17.77
2022-11-20T19:36:19.939Z,16.97
2022-11-20T19:39:08.931Z,15.97
2022-11-20T19:41:55.506Z,16.43
2022-11-20T19:44:41.923Z,15.93
2022-11-20T19:47:52.662Z,15.60
2022-11-20T19:50:36.399Z,16.97
2022-11-20T19:53:23.033Z,18.13
2022-11-20T19:56:10.389Z,14.60
2022-11-20T19:58:57.866Z,16.83
2022-11-20T20:01:44.519Z,16.50
2022-11-20T20:04:31.484Z,15.37
2022-11-20T20:07:19.101Z,20.10
2022-11-20T20:10:06.012Z,18.37
2022-11-20T20:12:52.589Z,15.87
2022-11-20T20:15:41.772Z,17.47
2022-11-20T20:18:27.987Z,16.73
2022-11-20T20:21:16.795Z,16.10
2022-11-20T20:24:05.224Z,16.70
2022-11-20T20:26:56.832Z,16.17
2022-11-20T20:29:44.741Z,18.37
2022-11-20T20:32:32.220Z,18.73
2022-11-20T20:35:18.688Z,20.40
2022-11-20T20:38:05.225Z,22.10
2022-11-20T20:40:52.840Z,20.63
2022-11-20T20:43:53.644Z,20.63
2022-11-20T20:46:40.133Z,22.40
2022-11-20T20:49:26.614Z,24.43
2022-11-20T20:52:13.234Z,22.53
2022-11-20T20:54:59.606Z,23.27
2022-11-20T20:57:47.375Z,23.33
2022-11-20T21:00:33.678Z,23.87
2022-11-20T21:03:20.703Z,22.10
2022-11-20T21:06:09.722Z,22.87
2022-11-20T21:08:58.392Z,22.77
2022-11-20T21:11:44.815Z,22.80
2022-11-20T21:14:32.961Z,22.03
2022-11-20T21:17:19.345Z,21.97
2022-11-20T21:20:26.793Z,23.60
2022-11-20T21:23:12.550Z,20.30
2022-11-20T21:26:01.724Z,20.73
2022-11-20T21:28:48.140Z,21.57
2022-11-20T21:31:37.326Z,20.33
2022-11-20T21:34:25.052Z,19.83
2022-11-20T21:37:11.868Z,18.73
2022-11-20T21:39:57.993Z,19.40
2022-11-20T21:42:44.628Z,19.37
2022-11-20T21:45:30.965Z,18.77
2022-11-20T21:48:18.912Z,19.53
2022-11-20T21:51:07.073Z,20.10
2022-11-20T21:53:55.664Z,19.43
2022-11-20T21:56:42.520Z,18.77
2022-11-20T21:59:29.084Z,18.83
2022-11-20T22:02:15.431Z,21.67
2022-11-20T22:05:03.834Z,18.00
2022-11-20T22:07:50.119Z,16.43
2022-11-20T22:10:36.669Z,17.57
2022-11-20T22:13:40.972Z,15.87
2022-11-20T22:16:27.981Z,16.57
2022-11-20T22:19:17.927Z,16.67
2022-11-20T22:22:05.947Z,16.80
2022-11-20T22:24:53.452Z,17.17
2022-11-20T22:27:40.255Z,17.63
2022-11-20T22:30:27.420Z,16.37
2022-11-20T22:33:14.115Z,16.20
2022-11-20T22:36:01.805Z,17.63
2022-11-20T22:38:49.780Z,15.03
2022-11-20T22:41:36.232Z,15.43
2022-11-20T22:44:23.111Z,16.33
2022-11-20T22:47:11.488Z,16.67
2022-11-20T22:49:58.067Z,15.47
2022-11-20T22:52:44.351Z,15.50
2022-11-20T22:55:34.076Z,15.47
2022-11-20T22:58:20.334Z,17.00
2022-11-20T23:01:08.710Z,17.10
2022-11-20T23:03:57.523Z,16.07
2022-11-20T23:06:43.812Z,16.67
2022-11-20T23:09:30.048Z,15.23
2022-11-20T23:12:18.042Z,15.87
2022-11-20T23:15:04.517Z,15.07
2022-11-20T23:17:50.785Z,17.27
2022-11-20T23:20:37.400Z,17.23
2022-11-20T23:23:23.837Z,17.37
2022-11-20T23:26:12.726Z,17.93
2022-11-20T23:29:01.450Z,17.23
2022-11-20T23:31:47.868Z,16.90
2022-11-20T23:34:34.056Z,17.07
2022-11-20T23:37:20.391Z,18.00
2022-11-20T23:40:09.081Z,18.03
2022-11-20T23:43:13.135Z,17.70
2022-11-20T23:46:02.266Z,18.53
2022-11-20T23:48:48.839Z,18.60
2022-11-20T23:51:35.399Z,17.73
2022-11-20T23:54:21.628Z,18.70
2022-11-20T23:57:08.052Z,18.33
2022-11-20T23:59:54.259Z,17.20
